• Join FlightAware (Why Join?)
  • Login
  • US Flag 
07:00AM EDT


 

Airport Tracker/Info


-or-


 

Live Flight TrackerFlight Track Log ✈ UAL1208 ✈ 04-05-2013 ✈ KLAX - KEWR

Flight Track Log - Related Links

Times and Time Zones

All times are in EDT time to prevent confusion due to time zone crossing. See the UAL1208 flight status page for this flight to view local times or setup timezone preferences in your user account.

Time Position Orientation Groundspeed Altitude Reporting Facility
EDT Latitude Longitude Course Direction KTS MPH feet Rate Location/Type
02:22AM 33.9333 -118.4403 90° East 189 217 1,300  Level Los Angeles Center
02:23AM 33.8942 -118.5083 235° Southwest 233 268 3,700 2,520 Climbing Los Angeles Center
02:24AM 33.8275 -118.5214 189° South 252 290 6,400 2,460 Climbing Los Angeles Center
02:25AM 33.6882 -118.5227 134° Southeast  Level FlightAware Approximate
02:25AM 33.7628 -118.5214 180° South 267 307 8,700  Level Los Angeles Center
02:26AM 33.6516 -118.3864 121° Southeast  Level FlightAware Approximate
02:26AM 33.6828 -118.4756 155° Southeast 306 352 11,400  Level Los Angeles Center
02:27AM 33.6333 -118.2469 90° East  Level FlightAware Approximate
02:27AM 33.6511 -118.3686 110° East 348 400 13,400  Level Los Angeles Center
02:28AM 33.6442 -118.2483 94° East 376 433 15,500 2,160 Climbing Los Angeles Center
02:29AM 33.6439 -118.1200 90° East 391 450 17,800 2,100 Climbing Los Angeles Center
02:30AM 33.6439 -117.9858 90° East 404 465 19,800 1,920 Climbing Los Angeles Center
02:31AM 33.6436 -117.8464 90° East 420 483 21,700 1,740 Climbing Los Angeles Center
02:32AM 33.6428 -117.7019 90° East 431 496 23,400 1,560 Climbing Los Angeles Center
02:33AM 33.6425 -117.5542 90° East 444 511 24,900 1,500 Climbing Los Angeles Center
02:34AM 33.6417 -117.4006 90° East 459 528 26,500 1,380 Climbing Los Angeles Center
02:35AM 33.6400 -117.2469 91° East 464 534 27,700 1,140 Climbing Los Angeles Center
02:36AM 33.6386 -117.0883 91° East 476 548 28,800 1,140 Climbing Los Angeles Center
02:37AM 33.6361 -116.8928 91° East 490 564 30,100 1,080 Climbing Los Angeles Center
02:38AM 33.6358 -116.7483 90° East 492 566 31,000 1,140 Climbing Los Angeles Center
02:39AM 33.6331 -116.5819 91° East 496 571 32,400 1,140 Climbing Los Angeles Center
02:40AM 33.6311 -116.4156 91° East 496 571 33,400 660 Climbing Los Angeles Center
02:41AM 33.6283 -116.2475 91° East 501 577 33,800 540 Climbing Los Angeles Center
02:42AM 33.6683 -116.0861 73° East 519 597 34,600 540 Climbing Los Angeles Center
02:43AM 33.7467 -115.9397 57° Northeast 517 595 34,900 180 Climbing Los Angeles Center
02:44AM 33.8247 -115.7961 57° Northeast 514 592 35,000  Climbing Los Angeles Center
02:45AM 33.9017 -115.6511 57° Northeast 515 593 35,000 -60 Level Los Angeles Center
02:46AM 33.9786 -115.5089 57° Northeast 509 586 34,900 -60 Descending Los Angeles Center
02:47AM 34.0458 -115.3606 61° Northeast 504 580 34,900  Level Los Angeles Center
02:48AM 34.1061 -115.2061 65° Northeast 509 586 35,000  Climbing Los Angeles Center
02:49AM 34.1656 -115.0542 65° Northeast 504 580 35,000 -60 Level Los Angeles Center
02:50AM 34.2261 -114.9014 64° Northeast 504 580 34,900 -60 Descending Los Angeles Center
02:51AM 34.2856 -114.7475 65° Northeast 506 582 34,900  Level Los Angeles Center
02:52AM 34.3456 -114.5942 65° Northeast 505 581 35,000  Climbing Los Angeles Center
02:53AM 34.4039 -114.4394 65° Northeast 504 580 34,900  Descending Los Angeles Center
02:54AM 34.4647 -114.2822 65° Northeast 512 589 35,000  Climbing Los Angeles Center
02:55AM 34.5233 -114.1264 65° Northeast 512 589 35,000  Level Los Angeles Center
02:56AM 34.5781 -113.9853 65° Northeast 510 587 35,000  Level Albuquerque Center
02:57AM 34.6356 -113.8311 66° East 506 582 35,000  Level Albuquerque Center
02:58AM 34.6878 -113.6933 65° Northeast 505 581 35,000  Level Albuquerque Center
02:59AM 34.7561 -113.5089 66° East 503 579 35,000  Level Albuquerque Center
03:00AM 34.8125 -113.3558 66° East 502 578 35,000  Level Albuquerque Center
03:01AM 34.8694 -113.2025 66° East 501 577 35,000  Level Albuquerque Center
03:02AM 34.9253 -113.0506 66° East 499 574 35,000  Level Albuquerque Center
03:03AM 34.9806 -112.8994 66° East 497 572 35,000  Level Albuquerque Center
03:04AM 35.0353 -112.7483 66° East 496 571 35,000  Level Albuquerque Center
03:05AM 35.0903 -112.5967 66° East 497 572 35,000  Level Albuquerque Center
03:06AM 35.1453 -112.4447 66° East 496 571 35,000  Level Albuquerque Center
03:07AM 35.1997 -112.2911 67° East 496 571 35,000  Level Albuquerque Center
03:08AM 35.2533 -112.1381 67° East 496 571 35,000  Level Albuquerque Center
03:09AM 35.3089 -111.9861 66° East 494 568 35,000  Level Albuquerque Center
03:10AM 35.3628 -111.8317 67° East 495 570 35,000  Level Albuquerque Center
03:11AM 35.4175 -111.6803 66° East 493 567 35,000  Level Albuquerque Center
03:12AM 35.4706 -111.5258 67° East 494 568 35,000 180 Level Albuquerque Center
03:13AM 35.5350 -111.3419 67° East 497 572 35,400 600 Climbing Albuquerque Center
03:14AM 35.5881 -111.1911 67° East 502 578 36,300 600 Climbing Albuquerque Center
03:15AM 35.6403 -111.0403 67° East 501 577 36,700 300 Climbing Albuquerque Center
03:16AM 35.6908 -110.8883 68° East 502 578 37,000 120 Climbing Albuquerque Center
03:17AM 35.7528 -110.7117 67° East 503 579 37,000  Level Albuquerque Center
03:18AM 35.8031 -110.5600 68° East 501 577 37,000  Level Albuquerque Center
03:19AM 35.8553 -110.4092 67° East 500 575 37,000  Level Albuquerque Center
03:20AM 35.8825 -110.3289 67° East 500 575 37,000  Level Denver Center
03:21AM 35.9356 -110.1714 67° East 501 577 37,000  Level Denver Center
03:22AM 35.9900 -110.0069 68° East 497 572 37,000  Level Denver Center
03:23AM 36.0408 -109.8539 68° East 500 575 37,000  Level Denver Center
03:24AM 36.0981 -109.6775 68° East 496 571 37,000  Level Denver Center
03:24AM 36.1233 -109.6019 67° East 494 568 37,000  Level Albuquerque Center
03:25AM 36.1481 -109.5264 68° East 496 571 37,000  Level Denver Center
03:26AM 36.1975 -109.3750 68° East 494 568 37,000  Level Denver Center
03:27AM 36.2467 -109.2239 68° East 492 566 37,000  Level Denver Center
03:28AM 36.3036 -109.0472 68° East 490 564 37,000  Level Denver Center
03:29AM 36.3528 -108.8944 68° East 491 565 37,000  Level Denver Center
03:30AM 36.4019 -108.7403 68° East 495 570 37,000  Level Denver Center
03:31AM 36.4508 -108.5858 68° East 497 572 37,000  Level Denver Center
03:32AM 36.5069 -108.4061 69° East 497 572 37,000  Level Denver Center
03:33AM 36.5556 -108.2528 68° East 497 572 37,000  Level Denver Center
03:34AM 36.6022 -108.1000 69° East 493 567 37,000  Level Denver Center
03:35AM 36.6497 -107.9486 69° East 492 566 37,000  Level Denver Center
03:36AM 36.7053 -107.7733 68° East 488 562 37,000  Level Denver Center
03:37AM 36.7508 -107.6222 69° East 488 562 37,000  Level Denver Center
03:38AM 36.7972 -107.4717 69° East 486 559 37,000  Level Denver Center
03:39AM 36.8506 -107.2958 69° East 486 559 37,000  Level Denver Center
03:40AM 36.8967 -107.1450 69° East 486 559 37,000  Level Denver Center
03:41AM 36.9408 -106.9922 70° East 488 562 37,000  Level Denver Center
03:42AM 36.9944 -106.8164 69° East 486 559 37,000  Level Denver Center
03:43AM 37.0411 -106.6650 69° East 486 559 37,000  Level Denver Center
03:44AM 37.0858 -106.5150 69° East 484 557 37,000  Level Denver Center
03:45AM 37.1292 -106.3642 70° East 481 554 37,000  Level Denver Center
03:46AM 37.1892 -106.1647 69° East 479 551 37,000  Level Denver Center
03:47AM 37.2319 -106.0139 70° East 479 551 37,000  Level Denver Center
03:48AM 37.2822 -105.8367 70° East 480 552 37,000  Level Denver Center
03:49AM 37.3225 -105.6853 71° East 481 554 37,000  Level Denver Center
03:50AM 37.3667 -105.5325 70° East 484 557 37,000  Level Denver Center
03:51AM 37.4119 -105.3825 69° East 482 555 37,000  Level Denver Center
03:52AM 37.4614 -105.2031 71° East 484 557 37,000  Level Denver Center
03:53AM 37.5056 -105.0492 70° East 482 555 37,000  Level Denver Center
03:54AM 37.5472 -104.8958 71° East 482 555 37,000  Level Denver Center
03:55AM 37.5961 -104.7172 71° East 483 556 37,000  Level Denver Center
03:56AM 37.6389 -104.5636 71° East 485 558 37,000  Level Denver Center
03:57AM 37.6806 -104.4067 71° East 490 564 37,000  Level Denver Center
03:58AM 37.7236 -104.2503 71° East 489 563 37,000  Level Denver Center
03:59AM 37.7744 -104.0653 71° East 491 565 37,000  Level Denver Center
04:00AM 37.8172 -103.9056 71° East 494 568 37,000  Level Denver Center
04:01AM 37.8589 -103.7475 71° East 492 566 37,000  Level Denver Center
04:02AM 37.9003 -103.5908 71° East 489 563 37,000  Level Denver Center
04:03AM 37.9489 -103.4061 71° East 492 566 37,000  Level Denver Center
04:04AM 37.9897 -103.2483 72° East 493 567 37,000  Level Denver Center
04:05AM 38.0353 -103.0769 71° East 492 566 37,000  Level Denver Center
04:06AM 38.0747 -102.9203 72° East 488 562 37,000  Level Denver Center
04:07AM 38.1142 -102.7636 72° East 487 560 37,000  Level Denver Center
04:08AM 38.1556 -102.6061 71° East 489 563 37,000  Level Denver Center
04:09AM 38.2011 -102.4236 72° East 486 559 37,000  Level Denver Center
04:10AM 38.2403 -102.2658 72° East 487 560 37,000  Level Denver Center
04:11AM 38.2803 -102.1081 72° East 489 563 37,000  Level Denver Center
04:12AM 38.3250 -101.9236 73° East 488 562 37,000  Level Denver Center
04:13AM 38.3650 -101.7661 72° East 487 560 37,000  Level Denver Center
04:14AM 38.4025 -101.6061 73° East 492 566 37,000  Level Denver Center
04:15AM 38.4419 -101.4481 72° East 489 563 37,000  Level Denver Center
04:16AM 38.4867 -101.2625 73° East 488 562 37,000  Level Denver Center
04:17AM 38.5250 -101.1044 73° East 486 559 37,000  Level Denver Center
04:18AM 38.5617 -100.9469 73° East 483 556 37,000  Level Denver Center
04:19AM 38.5986 -100.7886 73° East 484 557 37,000  Level Denver Center
04:20AM 38.6414 -100.6067 73° East 479 551 37,000  Level Denver Center
04:21AM 38.6772 -100.4494 74° East 481 554 37,000  Level Denver Center
04:22AM 38.7136 -100.2947 73° East 475 547 37,000  Level Denver Center
04:23AM 38.7550 -100.1142 74° East 473 544 37,000  Level Denver Center
04:24AM 38.7900 -99.9597 74° East 472 543 37,000  Level Denver Center
04:25AM 38.8242 -99.8061 74° East 469 540 37,000  Level Denver Center
04:27AM 38.8711 -99.6011 74° East 470 541 37,000  Level Denver Center
04:28AM 38.9050 -99.4481 74° East 467 537 37,000  Level Denver Center
04:29AM 38.9386 -99.2956 74° East 464 534 37,000  Level Denver Center
04:30AM 38.9728 -99.1419 74° East 465 535 37,000  Level Denver Center
04:31AM 39.0117 -98.9639 74° East 465 535 37,000  Level Denver Center
04:32AM 39.0453 -98.8044 75° East 463 533 37,000  Level Denver Center
04:33AM 39.0800 -98.6444 74° East 464 534 37,000  Level Denver Center
04:34AM 39.1139 -98.4853 75° East 462 532 37,000  Level Denver Center
04:35AM 39.1461 -98.3386 74° East 460 529 37,000  Level Kansas City Center
04:36AM 39.1794 -98.1806 75° East 457 526 37,000  Level Kansas City Center
04:37AM 39.2128 -98.0208 75° East 459 528 37,000  Level Kansas City Center
04:38AM 39.2461 -97.8597 75° East 450 518 37,000  Level Kansas City Center
04:39AM 39.2717 -97.7294 76° East 453 521 37,000  Level Kansas City Center
04:40AM 39.3044 -97.5728 75° East 453 521 37,000  Level Kansas City Center
04:41AM 39.3400 -97.4058 75° East 450 518 37,000  Level Kansas City Center
04:42AM 39.3694 -97.2572 76° East 448 516 37,000  Level Kansas City Center
04:43AM 39.4031 -97.0825 76° East 448 516 37,000  Level Kansas City Center
04:44AM 39.4339 -96.9361 75° East 445 512 37,000  Level Kansas City Center
04:45AM 39.4631 -96.7894 76° East 440 506 37,000  Level Kansas City Center
04:46AM 39.4956 -96.6197 76° East 436 502 37,000  Level Kansas City Center
04:47AM 39.5228 -96.4772 76° East 430 495 37,000  Level Kansas City Center
04:48AM 39.5472 -96.3358 77° East 422 486 37,000  Level Kansas City Center
04:49AM 39.5744 -96.1950 76° East 420 483 37,000  Level Kansas City Center
04:50AM 39.6053 -96.0319 76° East 417 480 37,000  Level Kansas City Center
04:51AM 39.6317 -95.8908 76° East 418 481 37,000  Level Kansas City Center
04:52AM 39.6586 -95.7508 76° East 419 482 37,000  Level Kansas City Center
04:53AM 39.6853 -95.6067 76° East 425 489 37,000  Level Kansas City Center
04:54AM 39.7150 -95.4400 77° East 424 488 37,000  Level Kansas City Center
04:55AM 39.7422 -95.2961 76° East 426 490 37,000  Level Kansas City Center
04:56AM 39.7678 -95.1519 77° East 425 489 37,000  Level Kansas City Center
04:57AM 39.7933 -95.0092 77° East 423 487 37,000  Level Kansas City Center
04:58AM 39.8231 -94.8417 77° East 424 488 37,000  Level Kansas City Center
04:59AM 39.8475 -94.6983 77° East 422 486 37,000  Level Kansas City Center
05:00AM 39.8775 -94.5333 77° East 420 483 37,000  Level Kansas City Center
05:01AM 39.9092 -94.3436 78° East 419 482 37,000  Level Kansas City Center
05:02AM 39.9333 -94.2036 77° East 414 476 37,000  Level Kansas City Center
05:03AM 39.9567 -94.0533 79° East 418 481 37,000  Level Kansas City Center
05:04AM 39.9817 -93.9092 77° East 413 475 37,000  Level Kansas City Center
05:05AM 40.0061 -93.7644 78° East 413 475 37,000  Level Kansas City Center
05:06AM 40.0311 -93.6203 77° East 412 474 37,000  Level Kansas City Center
05:07AM 40.0544 -93.4736 78° East 414 476 37,000  Level Kansas City Center
05:08AM 40.0775 -93.3278 78° East 414 476 37,000  Level Kansas City Center
05:09AM 40.1014 -93.1836 78° East 411 473 37,000  Level Kansas City Center
05:10AM 40.1281 -93.0364 77° East 410 472 37,000  Level Kansas City Center
05:11AM 40.1492 -92.8961 79° East 411 473 37,000  Level Kansas City Center
05:12AM 40.1747 -92.7331 78° East 410 472 37,000  Level Kansas City Center
05:13AM 40.1964 -92.5919 79° East 412 474 37,000  Level Kansas City Center
05:14AM 40.2181 -92.4531 78° East 409 471 37,000  Level Kansas City Center
05:15AM 40.2439 -92.2967 78° East 412 474 37,000  Level Kansas City Center
05:16AM 40.2653 -92.1522 79° East 409 471 37,000  Level Kansas City Center
05:17AM 40.2869 -92.0089 79° East 407 468 37,000  Level Kansas City Center
05:18AM 40.3086 -91.8658 79° East 405 466 37,000  Level Kansas City Center
05:19AM 40.3297 -91.7233 79° East 404 465 37,000  Level Kansas City Center
05:20AM 40.3508 -91.5803 79° East 403 464 37,000  Level Kansas City Center
05:21AM 40.3708 -91.4392 79° East 399 459 37,000  Level Kansas City Center
05:22AM 40.3806 -91.3825 77° East 399 459 37,000  Level Chicago Center
05:23AM 40.4014 -91.2358 79° East 402 463 37,000  Level Chicago Center
05:24AM 40.4208 -91.0925 80° East 400 460 37,000  Level Chicago Center
05:25AM 40.4422 -90.9494 79° East 401 461 37,000  Level Chicago Center
05:26AM 40.4622 -90.8064 80° East 399 459 37,000  Level Chicago Center
05:27AM 40.4819 -90.6647 80° East 397 457 37,000  Level Chicago Center
05:28AM 40.5008 -90.5183 80° East 399 459 37,000  Level Chicago Center
05:29AM 40.5206 -90.3767 80° East 400 460 37,000  Level Chicago Center
05:30AM 40.5397 -90.2322 80° East 400 460 37,000  Level Chicago Center
05:31AM 40.5564 -90.0883 81° East 400 460 37,000  Level Chicago Center
05:32AM 40.5753 -89.9447 80° East 401 461 37,000  Level Chicago Center
05:33AM 40.5947 -89.8031 80° East 398 458 37,000  Level Chicago Center
05:34AM 40.6144 -89.6603 80° East 397 457 37,000  Level Chicago Center
05:35AM 40.6317 -89.5269 80° East 395 455 37,000  Level Chicago Center
05:36AM 40.6494 -89.3858 81° East 394 453 37,000  Level Chicago Center
05:37AM 40.6681 -89.2433 80° East 396 456 37,000  Level Chicago Center
05:38AM 40.6861 -89.1000 81° East 398 458 37,000  Level Chicago Center
05:39AM 40.7031 -88.9567 81° East 398 458 37,000  Level Chicago Center
05:40AM 40.7214 -88.8081 81° East 400 460 37,000  Level Chicago Center
05:41AM 40.7383 -88.6656 81° East 398 458 37,000  Level Chicago Center
05:42AM 40.7561 -88.5242 81° East 396 456 37,000  Level Chicago Center
05:43AM 40.7764 -88.3553 81° East 393 452 37,000  Level Chicago Center
05:44AM 40.7925 -88.2117 82° East 397 457 37,000  Level Chicago Center
05:45AM 40.8100 -88.0692 81° East 399 459 37,000  Level Chicago Center
05:46AM 40.8250 -87.9281 82° East 394 453 37,000  Level Chicago Center
05:47AM 40.8414 -87.7864 81° East 394 453 37,000  Level Chicago Center
05:48AM 40.8575 -87.6447 81° East 394 453 37,000  Level Chicago Center
05:49AM 40.8739 -87.5025 81° East 395 455 37,000  Level Chicago Center
05:50AM 40.8889 -87.3614 82° East 392 451 37,000  Level Chicago Center
05:51AM 40.9042 -87.2178 82° East 397 457 37,000  Level Chicago Center
05:52AM 40.9192 -87.0756 82° East 395 455 37,000  Level Chicago Center
05:53AM 40.9347 -86.9308 82° East 398 458 37,000  Level Chicago Center
05:54AM 40.9483 -86.7858 83° East 400 460 37,000  Level Chicago Center
05:55AM 40.9650 -86.6361 82° East 401 461 37,000  Level Chicago Center
05:56AM 40.9794 -86.4908 82° East 400 460 37,000  Level Chicago Center
05:57AM 40.9939 -86.3442 83° East 402 463 37,000  Level Chicago Center
05:58AM 41.0089 -86.1992 82° East 400 460 37,000  Level Chicago Center
05:59AM 41.0222 -86.0536 83° East 401 461 37,000  Level Chicago Center
06:00AM 41.0358 -85.9089 83° East 400 460 37,000  Level Chicago Center
06:01AM 41.0503 -85.7656 82° East 397 457 37,000  Level Chicago Center
06:02AM 41.0625 -85.6206 84° East 398 458 37,000  Level Chicago Center
06:03AM 41.0756 -85.4758 83° East 397 457 37,000  Level Chicago Center
06:04AM 41.0878 -85.3314 84° East 399 459 37,000  Level Chicago Center
06:05AM 41.1017 -85.1819 83° East 406 467 37,000  Level Chicago Center
06:06AM 41.1150 -85.0367 83° East 404 465 37,000  Level Chicago Center
06:07AM 41.1294 -84.8608 84° East 403 464 37,000  Level Chicago Center
06:08AM 41.1425 -84.7153 83° East 401 461 37,000  Level Chicago Center
06:09AM 41.1544 -84.5692 84° East 401 461 37,000  Level Chicago Center
06:10AM 41.1667 -84.4256 84° East 396 456 37,000  Level Chicago Center
06:11AM 41.1786 -84.2794 84° East 398 458 37,000  Level Chicago Center
06:12AM 41.1906 -84.1347 84° East 398 458 37,000  Level Chicago Center
06:12AM 41.1961 -84.0658 84° East 400 460 37,000  Level Cleveland Center
06:13AM 41.2067 -83.9200 84° East 400 460 37,000  Level Cleveland Center
06:14AM 41.2150 -83.7769 86° East 400 460 37,000  Level Cleveland Center
06:15AM 41.2272 -83.6283 84° East 400 460 37,000  Level Cleveland Center
06:16AM 41.2375 -83.4797 85° East 405 466 37,000  Level Cleveland Center
06:17AM 41.2494 -83.3339 84° East 405 466 37,000  Level Cleveland Center
06:18AM 41.2592 -83.1853 85° East 405 466 37,000  Level Cleveland Center
06:19AM 41.2711 -83.0197 84° East 405 466 37,000  Level Cleveland Center
06:20AM 41.2825 -82.8711 84° East 405 466 37,000  Level Cleveland Center
06:21AM 41.2917 -82.7250 85° East 405 466 37,000  Level Cleveland Center
06:22AM 41.3028 -82.5733 84° East 411 473 37,000  Level Cleveland Center
06:23AM 41.3114 -82.4214 86° East 411 473 37,000  Level Cleveland Center
06:24AM 41.3222 -82.2725 84° East 405 466 37,000  Level Cleveland Center
06:25AM 41.3303 -82.1344 86° East 405 466 37,000  Level Cleveland Center
06:26AM 41.3431 -81.9633 84° East 416 479 37,000  Level Cleveland Center
06:27AM 41.3508 -81.8086 86° East 416 479 37,000  Level Cleveland Center
06:28AM 41.3608 -81.6564 85° East 416 479 37,000  Level Cleveland Center
06:29AM 41.3706 -81.5017 85° East 416 479 37,000  Level Cleveland Center
06:30AM 41.3758 -81.3497 87° East 424 488 37,000  Level Cleveland Center
06:31AM 41.3850 -81.1919 86° East 424 488 37,000  Level Cleveland Center
06:32AM 41.3919 -81.0397 86° East 419 482 37,000  Level Cleveland Center
06:33AM 41.4008 -80.8875 85° East 419 482 37,000  Level Cleveland Center
06:34AM 41.4094 -80.7300 86° East 424 488 37,000  Level Cleveland Center
06:35AM 41.4158 -80.5886 87° East 424 488 37,000  Level Cleveland Center
06:36AM 41.4219 -80.4308 87° East 424 488 37,000  Level Cleveland Center
06:37AM 41.4322 -80.2592 85° East 424 488 37,000  Level Cleveland Center
06:38AM 41.4400 -80.1011 86° East 424 488 37,000  Level Cleveland Center
06:39AM 41.4456 -79.9461 87° East 424 488 37,000  Level Cleveland Center
06:40AM 41.4528 -79.7881 86° East 424 488 37,000  Level Cleveland Center
06:41AM 41.4600 -79.6244 87° East 429 494 37,000  Level Cleveland Center
06:42AM 41.4647 -79.4664 88° East 429 494 37,000  Level Cleveland Center
06:43AM 41.4714 -79.3056 87° East 429 494 37,000  Level Cleveland Center
06:44AM 41.4778 -79.1447 87° East 429 494 37,000  Level Cleveland Center
06:45AM 41.4819 -78.9867 88° East 429 494 37,000  Level Cleveland Center
06:46AM 41.4881 -78.8286 87° East 424 488 37,000  Level Cleveland Center
06:47AM 41.4939 -78.6731 87° East 419 482 37,000  Level Cleveland Center
06:48AM 41.4994 -78.5122 87° East 424 488 37,000 -540 Level Cleveland Center
06:50AM 41.5069 -78.2453 88° East 424 488 35,700 -1,620 Descending New York Center
06:51AM 41.5089 -78.0792 89° East 436 502 32,600 -2,400 Descending New York Center
06:52AM 41.5044 -77.9153 92° East 441 507 31,000 -840 Descending New York Center
06:53AM 41.4828 -77.7550 100° East 446 513 31,000  Level New York Center
06:54AM 41.4589 -77.5892 101° East 446 513 31,000  Level New York Center
06:55AM 41.4378 -77.4458 101° East 446 513 31,000  Level New York Center
06:56AM 41.4028 -77.2903 107° East 440 506 31,000  Level New York Center
06:57AM 41.3717 -77.1325 105° East 440 506 31,000  Level New York Center
06:58AM 41.3383 -76.9772 106° East 440 506 31,000 -300 Level New York Center
06:59AM 41.3069 -76.8197 105° East 440 506 30,400 -1,980 Descending New York Center
07:00AM 41.2694 -76.6506 106° East 440 506 27,100 -2,880 Descending New York Center
07:01AM 41.2372 -76.5017 106° East 429 494 24,700 -2,340 Descending New York Center
07:02AM 41.2064 -76.3611 106° East 413 475 22,500 -2,280 Descending New York Center
07:03AM 41.1775 -76.2236 106° East 393 452 20,300 -2,160 Descending New York Center
07:04AM 41.1522 -76.0947 105° East 371 427 18,200 -1,140 Descending New York Center
07:05AM 41.1203 -75.9656 108° East 365 420 18,000 -180 Descending New York Center
07:06AM 41.0878 -75.8503 110° East 373 429 17,900 -1,320 Descending New York Center
07:07AM 41.0517 -75.7208 110° East 373 429 15,500 -2,400 Descending New York Center
07:08AM 41.0136 -75.5806 110° East 373 429 13,000 -1,260 Descending New York Center
07:09AM 40.9811 -75.4600 110° East 366 421 13,000 -360 Level New York Center
07:10AM 40.9500 -75.3508 111° Southeast 353 406 12,400 -1,200 Descending New York Center
07:11AM 40.9150 -75.2303 111° Southeast 353 406 10,600 -1,260 Descending New York Center
07:12AM 40.8836 -75.1186 110° East 315 362 9,900 -1,080 Descending New York Center
07:13AM 40.8558 -75.0261 112° Southeast 285 328 8,500 -1,260 Descending New York Center
07:14AM 40.8192 -74.9417 120° Southeast 269 310 7,500 -780 Descending New York Center
07:15AM 40.7803 -74.8597 122° Southeast 264 304 7,000 -660 Descending New York Center
07:16AM 40.7475 -74.7839 120° Southeast 259 298 6,200 -600 Descending New York Center
07:17AM 40.7089 -74.6967 120° Southeast 259 298 5,900 -840 Descending New York Center
07:18AM 40.6758 -74.6211 120° Southeast 259 298 4,600 -1,200 Descending New York Center
07:19AM 40.6500 -74.5667 122° Southeast 250 288 4,000 -480 Descending New York TRACON
07:19AM 40.6167 -74.5000 123° Southeast 244 281 4,000  Level New York TRACON
07:20AM 40.5833 -74.4333 123° Southeast 219 252 4,000 -120 Level New York TRACON
07:21AM 40.5667 -74.3667 108° East 187 215 3,800 -780 Descending New York TRACON
07:22AM 40.5500 -74.3167 114° Southeast 172 198 2,500 -900 Descending New York TRACON
07:23AM 40.5667 -74.2500 72° East 173 199 2,000 -420 Descending New York TRACON
07:24AM 40.6000 -74.2167 37° Northeast 169 194 1,700 -600 Descending New York TRACON
07:25AM 40.6333 -74.2000 21° North 144 166 900 -840 Descending New York TRACON
07:26AM 40.6667 -74.1833 21° North 137 158 200 -780 Descending New York TRACON